Time;durP1;ratioP1;P1;durP2;ratioP2;P2;SDS_P1;SDS_P2;PMS_P1;PMS_P2;Temp;Humidity;BMP_temperature;BMP_pressure;BME280_temperature;BME280_humidity;BME280_pressure;Samples;Min_cycle;Max_cycle;Signal;HPM_P1;HPM_P2
2022/03/05 00:01:42;;;;;;;42.63;22.83;;;;;;;;;;5121428;28;20077;-87
2022/03/05 00:04:09;;;;;;;42.85;23.90;;;;;;;;;;5120000;28;20118;-86
2022/03/05 00:06:35;;;;;;;42.47;23.73;;;;;;;;;;5120773;27;20024;-87
2022/03/05 00:09:01;;;;;;;44.58;24.05;;;;;;;;;;5119882;28;20031;-87
2022/03/05 00:14:30;;;;;;;44.10;23.65;;;;;;;;;;5120907;28;20054;-87
2022/03/05 00:16:56;;;;;;;47.95;23.55;;;;;;;;;;5119747;28;20026;-87
2022/03/05 00:19:22;;;;;;;48.45;24.50;;;;;;;;;;5120478;28;20410;-87
2022/03/05 00:21:48;;;;;;;46.22;24.50;;;;;;;;;;5114345;28;20417;-87
2022/03/05 00:24:14;;;;;;;46.45;25.08;;;;;;;;;;5117157;27;20325;-87
2022/03/05 00:26:40;;;;;;;47.53;25.85;;;;;;;;;;5140947;27;20046;-87
2022/03/05 00:29:07;;;;;;;43.72;24.08;;;;;;;;;;5122758;27;20084;-88
2022/03/05 00:31:33;;;;;;;45.28;24.05;;;;;;;;;;5125973;27;20068;-88
2022/03/05 00:33:59;;;;;;;45.25;24.35;;;;;;;;;;5140730;27;20019;-88
2022/03/05 00:36:27;;;;;;;44.63;25.27;;;;;;;;;;5140995;27;20072;-88
2022/03/05 00:38:54;;;;;;;43.78;23.48;;;;;;;;;;5140802;27;20020;-87
2022/03/05 00:41:20;;;;;;;46.95;25.00;;;;;;;;;;5133908;27;20048;-87
2022/03/05 00:43:46;;;;;;;42.22;23.98;;;;;;;;;;5118898;28;20027;-86
2022/03/05 00:46:12;;;;;;;42.72;23.05;;;;;;;;;;5120190;28;20028;-87
2022/03/05 00:48:38;;;;;;;46.83;25.08;;;;;;;;;;5120117;27;20118;-87
2022/03/05 00:51:04;;;;;;;43.20;24.88;;;;;;;;;;5119817;28;20036;-87
2022/03/05 00:53:31;;;;;;;44.65;23.83;;;;;;;;;;5127974;27;20031;-87
2022/03/05 00:55:57;;;;;;;44.28;24.48;;;;;;;;;;5118368;27;20076;-87
2022/03/05 00:58:23;;;;;;;39.42;22.90;;;;;;;;;;5122200;27;20051;-87
2022/03/05 01:00:49;;;;;;;42.47;23.25;;;;;;;;;;5140252;27;20019;-86
2022/03/05 01:03:15;;;;;;;43.30;24.13;;;;;;;;;;5121872;27;20023;-87
2022/03/05 01:05:41;;;;;;;44.67;23.75;;;;;;;;;;5140394;27;20019;-87
2022/03/05 01:08:08;;;;;;;48.33;25.25;;;;;;;;;;5122123;27;20068;-86
2022/03/05 01:10:35;;;;;;;40.80;23.40;;;;;;;;;;5140513;27;20023;-87
2022/03/05 01:13:02;;;;;;;43.88;23.27;;;;;;;;;;5140177;27;20019;-87
2022/03/05 01:15:28;;;;;;;42.63;24.23;;;;;;;;;;5139675;27;20019;-87
2022/03/05 01:17:54;;;;;;;42.00;23.20;;;;;;;;;;5134300;27;20030;-87
2022/03/05 01:20:20;;;;;;;45.92;23.98;;;;;;;;;;5140268;27;20020;-87
2022/03/05 01:22:46;;;;;;;39.88;23.08;;;;;;;;;;5139893;27;20028;-88
2022/03/05 01:25:12;;;;;;;46.15;25.23;;;;;;;;;;5121803;27;20055;-87
2022/03/05 01:27:38;;;;;;;42.22;24.02;;;;;;;;;;5121183;27;20039;-88
2022/03/05 01:30:04;;;;;;;45.33;24.38;;;;;;;;;;5139766;27;20034;-87
2022/03/05 01:32:30;;;;;;;43.42;24.08;;;;;;;;;;5121678;27;20023;-88
2022/03/05 01:34:56;;;;;;;44.85;25.00;;;;;;;;;;5139855;27;20027;-88
2022/03/05 01:37:23;;;;;;;49.25;26.25;;;;;;;;;;5139896;27;20092;-87
2022/03/05 01:39:49;;;;;;;47.88;26.50;;;;;;;;;;5139791;27;20060;-87
2022/03/05 01:42:18;;;;;;;51.75;27.40;;;;;;;;;;5120808;27;20019;-88
2022/03/05 01:44:44;;;;;;;49.78;26.85;;;;;;;;;;5139337;27;20055;-87
2022/03/05 01:47:10;;;;;;;55.83;28.02;;;;;;;;;;5139539;27;20045;-87
2022/03/05 01:49:36;;;;;;;50.08;26.85;;;;;;;;;;5121346;27;20062;-85
2022/03/05 01:52:03;;;;;;;50.35;26.30;;;;;;;;;;5139406;27;20034;-88
2022/03/05 01:54:29;;;;;;;49.55;28.08;;;;;;;;;;5134086;27;20476;-86
2022/03/05 01:56:56;;;;;;;52.47;27.70;;;;;;;;;;5139278;27;20317;-87
2022/03/05 01:59:22;;;;;;;55.00;28.25;;;;;;;;;;5139221;27;20063;-86
2022/03/05 02:01:48;;;;;;;56.55;29.23;;;;;;;;;;5121215;27;20027;-86
2022/03/05 02:04:14;;;;;;;54.60;27.35;;;;;;;;;;5130552;27;20047;-86
2022/03/05 02:06:41;;;;;;;55.33;28.67;;;;;;;;;;5119839;27;20027;-88
2022/03/05 02:09:07;;;;;;;47.90;26.63;;;;;;;;;;5118415;28;20035;-88
2022/03/05 02:14:55;;;;;;;48.60;26.23;;;;;;;;;;5118634;28;20465;-87
2022/03/05 02:17:21;;;;;;;53.83;27.23;;;;;;;;;;5117057;28;20094;-87
2022/03/05 02:19:47;;;;;;;51.83;27.55;;;;;;;;;;5119719;27;20019;-86
2022/03/05 02:22:13;;;;;;;50.90;26.67;;;;;;;;;;5138864;27;20027;-86
2022/03/05 02:24:40;;;;;;;46.53;25.65;;;;;;;;;;5138778;27;20114;-88
2022/03/05 02:27:43;;;;;;;50.78;25.38;;;;;;;;;;5138894;27;20031;-89
2022/03/05 02:30:09;;;;;;;48.50;25.02;;;;;;;;;;5138924;27;20031;-89
2022/03/05 02:32:35;;;;;;;50.75;27.48;;;;;;;;;;5132266;27;20114;-88
2022/03/05 02:35:01;;;;;;;54.90;27.38;;;;;;;;;;5116867;28;20032;-87
2022/03/05 02:37:27;;;;;;;51.45;26.23;;;;;;;;;;5117151;28;20082;-88
2022/03/05 02:39:53;;;;;;;48.65;26.88;;;;;;;;;;5118793;28;20015;-87
2022/03/05 02:42:19;;;;;;;47.10;26.73;;;;;;;;;;5118356;28;20023;-87
2022/03/05 02:44:46;;;;;;;48.60;26.83;;;;;;;;;;5118092;28;20019;-87
2022/03/05 02:47:12;;;;;;;51.85;27.67;;;;;;;;;;5118089;28;20065;-88
2022/03/05 02:49:38;;;;;;;52.67;27.08;;;;;;;;;;5117055;28;20360;-88
2022/03/05 02:52:05;;;;;;;56.22;28.27;;;;;;;;;;5117724;28;20028;-86
2022/03/05 02:54:31;;;;;;;55.50;28.15;;;;;;;;;;5120285;28;20455;-87
2022/03/05 02:56:57;;;;;;;58.40;28.65;;;;;;;;;;5122061;28;20023;-88
2022/03/05 02:59:25;;;;;;;64.25;31.52;;;;;;;;;;5139488;27;20050;-88
2022/03/05 03:01:51;;;;;;;67.80;33.75;;;;;;;;;;5142340;27;20031;-86
2022/03/05 03:04:17;;;;;;;55.80;28.58;;;;;;;;;;5124378;27;20027;-87
2022/03/05 03:06:43;;;;;;;52.30;27.00;;;;;;;;;;5142861;27;20030;-87
2022/03/05 03:09:09;;;;;;;47.38;25.88;;;;;;;;;;5142540;27;20027;-88
2022/03/05 03:14:38;;;;;;;45.42;24.45;;;;;;;;;;5142555;27;20488;-87
2022/03/05 03:17:04;;;;;;;51.78;27.98;;;;;;;;;;5123997;27;20038;-87
2022/03/05 03:19:30;;;;;;;53.38;27.35;;;;;;;;;;5142267;27;20401;-87
2022/03/05 03:21:56;;;;;;;50.30;26.67;;;;;;;;;;5124054;27;20420;-87
2022/03/05 03:24:22;;;;;;;50.83;26.65;;;;;;;;;;5142461;27;20034;-87
2022/03/05 03:26:49;;;;;;;47.88;25.30;;;;;;;;;;5142253;27;20030;-87
2022/03/05 03:29:15;;;;;;;47.63;24.50;;;;;;;;;;5142254;27;20027;-87
2022/03/05 03:31:41;;;;;;;51.10;26.33;;;;;;;;;;5142115;27;20031;-88
2022/03/05 03:34:07;;;;;;;53.00;27.48;;;;;;;;;;5142065;27;20416;-87
2022/03/05 03:36:33;;;;;;;53.63;28.42;;;;;;;;;;5142196;27;20060;-87
2022/03/05 03:38:59;;;;;;;55.10;29.70;;;;;;;;;;5124262;27;20026;-87
2022/03/05 03:41:25;;;;;;;63.50;30.48;;;;;;;;;;5141512;27;20023;-87
2022/03/05 03:43:51;;;;;;;56.30;29.27;;;;;;;;;;5123721;27;20026;-87
2022/03/05 03:46:17;;;;;;;57.72;28.65;;;;;;;;;;5141897;27;20019;-87
2022/03/05 03:48:43;;;;;;;54.40;27.83;;;;;;;;;;5141803;27;20031;-88
2022/03/05 03:51:09;;;;;;;56.53;27.17;;;;;;;;;;5141394;27;20084;-87
2022/03/05 03:53:35;;;;;;;56.72;28.35;;;;;;;;;;5141652;27;20451;-87
2022/03/05 03:56:02;;;;;;;59.40;29.45;;;;;;;;;;5141500;27;20110;-87
2022/03/05 03:58:28;;;;;;;61.22;29.77;;;;;;;;;;5140450;27;20039;-87
2022/03/05 04:00:54;;;;;;;112.32;55.80;;;;;;;;;;5141236;27;20413;-87
2022/03/05 04:03:20;;;;;;;88.30;46.22;;;;;;;;;;5141717;27;20035;-88
2022/03/05 04:05:47;;;;;;;61.53;30.55;;;;;;;;;;5122280;27;20122;-88
2022/03/05 04:10:57;;;;;;;48.90;24.67;;;;;;;;;;5141730;27;20074;-87
2022/03/05 04:13:23;;;;;;;55.50;25.80;;;;;;;;;;5141582;27;20024;-88
2022/03/05 04:15:49;;;;;;;53.25;27.27;;;;;;;;;;5141311;27;20041;-87
2022/03/05 04:18:16;;;;;;;56.70;27.60;;;;;;;;;;5141249;27;20023;-87
2022/03/05 04:20:42;;;;;;;63.83;30.00;;;;;;;;;;5141078;27;20023;-87
2022/03/05 04:23:08;;;;;;;51.72;26.90;;;;;;;;;;5141171;27;20023;-85
2022/03/05 04:25:34;;;;;;;49.17;24.52;;;;;;;;;;5140931;27;20019;-87
2022/03/05 04:28:00;;;;;;;47.67;25.38;;;;;;;;;;5141255;27;20023;-87
2022/03/05 04:30:26;;;;;;;44.22;23.75;;;;;;;;;;5140960;27;20064;-87
2022/03/05 04:32:52;;;;;;;51.17;25.45;;;;;;;;;;5141247;27;20064;-88
2022/03/05 04:35:18;;;;;;;54.85;26.33;;;;;;;;;;5140813;27;20026;-87
2022/03/05 04:37:44;;;;;;;56.50;28.02;;;;;;;;;;5140781;27;20019;-87
2022/03/05 04:40:10;;;;;;;60.40;28.27;;;;;;;;;;5141000;27;20031;-87
2022/03/05 04:42:36;;;;;;;56.65;26.30;;;;;;;;;;5140824;27;20030;-88
2022/03/05 04:45:06;;;;;;;53.42;25.15;;;;;;;;;;5140647;27;20052;-88
2022/03/05 04:47:32;;;;;;;51.35;25.13;;;;;;;;;;5140569;27;20023;-88
2022/03/05 04:49:58;;;;;;;48.15;25.52;;;;;;;;;;5140507;27;20076;-88
2022/03/05 04:52:24;;;;;;;62.47;28.65;;;;;;;;;;5140478;27;20329;-87
2022/03/05 04:54:50;;;;;;;72.80;33.42;;;;;;;;;;5140969;27;20023;-87
2022/03/05 04:57:16;;;;;;;78.88;36.65;;;;;;;;;;5140220;27;20110;-87
2022/03/05 04:59:42;;;;;;;90.57;40.42;;;;;;;;;;5140316;27;20070;-88
2022/03/05 05:02:09;;;;;;;76.40;37.00;;;;;;;;;;5140352;27;20023;-87
2022/03/05 05:04:35;;;;;;;92.25;47.75;;;;;;;;;;5139678;27;20019;-87
2022/03/05 05:07:01;;;;;;;111.05;70.60;;;;;;;;;;5121467;27;20035;-87
2022/03/05 05:09:27;;;;;;;88.97;54.70;;;;;;;;;;5121835;27;20023;-87
2022/03/05 05:11:53;;;;;;;78.72;45.45;;;;;;;;;;5122109;27;20015;-87
2022/03/05 05:14:37;;;;;;;79.00;42.33;;;;;;;;;;5139906;27;20027;-86
2022/03/05 05:17:03;;;;;;;59.50;31.55;;;;;;;;;;5121107;27;20045;-87
2022/03/05 05:19:29;;;;;;;58.20;30.42;;;;;;;;;;5121203;27;20126;-87
2022/03/05 05:21:56;;;;;;;102.55;47.15;;;;;;;;;;5140087;27;20047;-87
2022/03/05 05:24:23;;;;;;;103.40;47.92;;;;;;;;;;5118209;28;20341;-87
2022/03/05 05:26:49;;;;;;;79.40;39.97;;;;;;;;;;5119594;28;20043;-89
2022/03/05 05:29:15;;;;;;;67.38;34.50;;;;;;;;;;5119241;28;20418;-88
2022/03/05 05:31:41;;;;;;;58.63;29.92;;;;;;;;;;5119235;28;20038;-87
2022/03/05 05:34:07;;;;;;;58.47;28.65;;;;;;;;;;5119180;28;20024;-87
2022/03/05 05:36:33;;;;;;;57.92;28.77;;;;;;;;;;5119291;28;20069;-88
2022/03/05 05:38:59;;;;;;;80.35;36.90;;;;;;;;;;5119484;28;20011;-87
2022/03/05 05:41:25;;;;;;;101.82;45.65;;;;;;;;;;5101093;28;20026;-87
2022/03/05 05:43:51;;;;;;;97.30;44.45;;;;;;;;;;5123465;27;20023;-87
2022/03/05 05:46:17;;;;;;;107.13;47.28;;;;;;;;;;5139712;27;20398;-87
2022/03/05 05:48:43;;;;;;;112.22;48.30;;;;;;;;;;5139387;27;20064;-89
2022/03/05 05:51:09;;;;;;;116.07;48.17;;;;;;;;;;5139195;27;20039;-86
2022/03/05 05:53:35;;;;;;;150.57;54.47;;;;;;;;;;5117018;28;20417;-87
2022/03/05 05:56:02;;;;;;;142.95;52.67;;;;;;;;;;5118992;28;20030;-87
2022/03/05 05:58:28;;;;;;;151.55;54.33;;;;;;;;;;5118600;28;20470;-87
2022/03/05 06:00:54;;;;;;;138.77;48.15;;;;;;;;;;5100826;28;20038;-86
2022/03/05 06:03:20;;;;;;;163.00;55.28;;;;;;;;;;5119129;27;20028;-87
2022/03/05 06:05:46;;;;;;;189.98;60.53;;;;;;;;;;5138936;27;20064;-88
2022/03/05 06:08:12;;;;;;;131.30;46.10;;;;;;;;;;5121061;27;20106;-88
2022/03/05 06:10:38;;;;;;;74.90;31.70;;;;;;;;;;5139285;27;20019;-88
2022/03/05 06:13:04;;;;;;;62.67;29.15;;;;;;;;;;5139278;27;20019;-88
2022/03/05 06:15:30;;;;;;;51.40;24.63;;;;;;;;;;5139232;27;20011;-88
2022/03/05 06:17:57;;;;;;;49.47;25.83;;;;;;;;;;5138611;27;20027;-89
2022/03/05 06:20:23;;;;;;;58.03;28.42;;;;;;;;;;5138816;27;20030;-88
2022/03/05 06:22:49;;;;;;;49.67;25.92;;;;;;;;;;5138743;27;20068;-87
2022/03/05 06:25:17;;;;;;;53.35;26.52;;;;;;;;;;5138667;27;20037;-88
2022/03/05 06:27:44;;;;;;;55.33;26.23;;;;;;;;;;5118404;27;20055;-87
2022/03/05 06:30:11;;;;;;;49.40;25.27;;;;;;;;;;5138568;27;20019;-87
2022/03/05 06:32:37;;;;;;;47.50;25.27;;;;;;;;;;5120561;27;20028;-89
2022/03/05 06:35:05;;;;;;;46.92;24.35;;;;;;;;;;5138497;27;20050;-88
2022/03/05 06:37:31;;;;;;;48.80;23.73;;;;;;;;;;5120511;27;20034;-87
2022/03/05 06:39:57;;;;;;;42.30;22.92;;;;;;;;;;5138745;27;20041;-87
2022/03/05 06:48:30;;;;;;;45.17;24.48;;;;;;;;;;5139026;28;20030;-87
2022/03/05 06:50:56;;;;;;;44.47;22.73;;;;;;;;;;5138330;27;20394;-87
2022/03/05 06:53:22;;;;;;;45.97;24.80;;;;;;;;;;5138627;28;20412;-88
2022/03/05 06:55:48;;;;;;;49.53;25.80;;;;;;;;;;5138465;28;20110;-88
2022/03/05 06:58:26;;;;;;;45.15;25.20;;;;;;;;;;5138121;28;20020;-88
2022/03/05 07:00:52;;;;;;;59.08;30.33;;;;;;;;;;5118148;28;20046;-89
2022/03/05 07:03:18;;;;;;;56.78;29.00;;;;;;;;;;5116317;28;20075;-89
2022/03/05 07:05:44;;;;;;;47.92;24.75;;;;;;;;;;5117886;28;20023;-89
2022/03/05 07:08:10;;;;;;;60.13;30.73;;;;;;;;;;5117435;28;20031;-88
2022/03/05 07:10:37;;;;;;;55.67;28.27;;;;;;;;;;5117867;28;20110;-89
2022/03/05 07:13:03;;;;;;;60.10;31.60;;;;;;;;;;5099533;28;20043;-87
2022/03/05 07:15:29;;;;;;;55.58;28.50;;;;;;;;;;5115523;28;20028;-87
2022/03/05 07:17:55;;;;;;;47.83;25.88;;;;;;;;;;5117937;28;20028;-87
2022/03/05 07:20:22;;;;;;;60.55;31.38;;;;;;;;;;5117565;28;20103;-87
2022/03/05 07:22:48;;;;;;;60.17;29.58;;;;;;;;;;5116672;28;20039;-87
2022/03/05 07:25:15;;;;;;;83.47;41.97;;;;;;;;;;5110147;28;20353;-87
2022/03/05 07:27:42;;;;;;;67.00;34.28;;;;;;;;;;5117984;28;20103;-86
2022/03/05 07:30:08;;;;;;;59.05;31.42;;;;;;;;;;5099436;28;20035;-87
2022/03/05 07:32:35;;;;;;;60.10;33.78;;;;;;;;;;5099695;28;20019;-88
2022/03/05 07:35:01;;;;;;;59.33;32.22;;;;;;;;;;5117980;28;20028;-88
2022/03/05 07:37:27;;;;;;;56.05;31.95;;;;;;;;;;5116157;28;20040;-88
2022/03/05 07:39:53;;;;;;;51.65;28.77;;;;;;;;;;5118451;28;20053;-87
2022/03/05 07:42:19;;;;;;;51.13;28.48;;;;;;;;;;5121329;28;20049;-87
2022/03/05 07:44:45;;;;;;;69.75;33.08;;;;;;;;;;5121754;28;20064;-88
2022/03/05 07:47:11;;;;;;;80.43;38.30;;;;;;;;;;5102508;28;20055;-88
2022/03/05 07:49:37;;;;;;;121.47;52.75;;;;;;;;;;5120862;28;20027;-87
2022/03/05 07:52:04;;;;;;;130.60;64.65;;;;;;;;;;5103178;28;20034;-87
2022/03/05 07:54:30;;;;;;;105.20;51.38;;;;;;;;;;5121359;28;20032;-88
2022/03/05 07:56:56;;;;;;;125.40;63.35;;;;;;;;;;5102488;28;20436;-87
2022/03/05 07:59:22;;;;;;;102.43;49.83;;;;;;;;;;5128425;27;20495;-87
2022/03/05 08:01:48;;;;;;;66.30;34.97;;;;;;;;;;5141857;27;20362;-86
2022/03/05 08:04:14;;;;;;;64.88;31.15;;;;;;;;;;5141940;27;20041;-86
2022/03/05 08:06:41;;;;;;;59.92;30.77;;;;;;;;;;5121629;27;20032;-87
2022/03/05 08:09:07;;;;;;;53.10;29.65;;;;;;;;;;5138710;27;20130;-86
2022/03/05 08:11:33;;;;;;;53.08;28.17;;;;;;;;;;5140258;27;20023;-87
2022/03/05 08:13:59;;;;;;;53.13;28.67;;;;;;;;;;5140980;27;20042;-87
2022/03/05 08:16:25;;;;;;;56.25;28.45;;;;;;;;;;5139467;27;20031;-86
2022/03/05 08:18:51;;;;;;;58.65;29.83;;;;;;;;;;5141181;27;20023;-87
2022/03/05 08:21:17;;;;;;;53.42;28.08;;;;;;;;;;5140046;27;20050;-87
2022/03/05 08:23:43;;;;;;;55.10;29.40;;;;;;;;;;5140888;27;20052;-87
2022/03/05 08:26:13;;;;;;;57.35;31.25;;;;;;;;;;5123177;27;20027;-85
2022/03/05 08:28:40;;;;;;;56.17;29.63;;;;;;;;;;5122750;27;20114;-86
2022/03/05 08:31:06;;;;;;;53.47;27.90;;;;;;;;;;5141027;27;20106;-86
2022/03/05 08:33:32;;;;;;;46.15;25.48;;;;;;;;;;5140929;27;20019;-85
2022/03/05 08:35:58;;;;;;;44.08;23.67;;;;;;;;;;5140615;27;20092;-86
2022/03/05 08:38:24;;;;;;;44.00;24.20;;;;;;;;;;5140695;27;20060;-86
2022/03/05 08:40:50;;;;;;;43.75;23.10;;;;;;;;;;5140763;27;20068;-85
2022/03/05 08:43:17;;;;;;;52.08;28.55;;;;;;;;;;5122437;27;20059;-85
2022/03/05 08:45:43;;;;;;;54.03;28.98;;;;;;;;;;5140737;27;20019;-86
2022/03/05 08:48:09;;;;;;;85.30;41.53;;;;;;;;;;5140314;27;20030;-86
2022/03/05 08:50:35;;;;;;;42.35;24.45;;;;;;;;;;5140284;27;20102;-86
2022/03/05 08:53:01;;;;;;;42.50;23.15;;;;;;;;;;5140443;27;20409;-86
2022/03/05 08:55:28;;;;;;;40.78;24.25;;;;;;;;;;5140458;27;20019;-86
2022/03/05 08:57:54;;;;;;;47.47;25.80;;;;;;;;;;5121550;27;20054;-86
2022/03/05 09:00:20;;;;;;;44.08;25.38;;;;;;;;;;5140129;27;20043;-86
2022/03/05 09:02:46;;;;;;;41.60;21.05;;;;;;;;;;5140483;27;20030;-86
2022/03/05 09:05:14;;;;;;;43.13;24.77;;;;;;;;;;5140357;27;20023;-86
2022/03/05 09:07:40;;;;;;;39.80;22.88;;;;;;;;;;5121824;27;20035;-86
2022/03/05 09:10:08;;;;;;;37.40;21.73;;;;;;;;;;5140271;27;20030;-86
2022/03/05 09:12:34;;;;;;;43.95;23.05;;;;;;;;;;5139974;27;20026;-86
2022/03/05 09:15:00;;;;;;;45.88;26.00;;;;;;;;;;5139980;27;20389;-86
2022/03/05 09:17:26;;;;;;;54.03;32.15;;;;;;;;;;5139815;27;20355;-85
2022/03/05 09:19:53;;;;;;;49.63;27.45;;;;;;;;;;5121070;27;20372;-86
2022/03/05 09:22:19;;;;;;;47.78;28.20;;;;;;;;;;5121603;27;20039;-86
2022/03/05 09:24:46;;;;;;;42.00;23.45;;;;;;;;;;5139937;27;20445;-86
2022/03/05 09:27:12;;;;;;;38.65;21.92;;;;;;;;;;5139891;27;20114;-85
2022/03/05 09:29:38;;;;;;;42.65;24.92;;;;;;;;;;5139673;27;20420;-85
2022/03/05 09:32:04;;;;;;;74.07;42.22;;;;;;;;;;5139340;27;20054;-86
2022/03/05 09:34:30;;;;;;;46.45;26.23;;;;;;;;;;5139627;27;20071;-86
2022/03/05 09:36:56;;;;;;;69.82;40.15;;;;;;;;;;5139559;27;20424;-86
2022/03/05 09:39:24;;;;;;;59.05;31.70;;;;;;;;;;5139512;27;20397;-86
2022/03/05 09:41:50;;;;;;;50.33;28.33;;;;;;;;;;5139459;27;20019;-86
2022/03/05 09:44:17;;;;;;;39.10;25.23;;;;;;;;;;5139510;27;20343;-86
2022/03/05 09:46:43;;;;;;;56.92;33.83;;;;;;;;;;5121116;27;20031;-85
2022/03/05 09:49:09;;;;;;;41.72;24.00;;;;;;;;;;5139429;27;20027;-85
2022/03/05 09:51:35;;;;;;;66.18;42.67;;;;;;;;;;5120099;27;20155;-85
2022/03/05 09:54:02;;;;;;;37.40;21.67;;;;;;;;;;5139361;27;20023;-85
2022/03/05 09:56:28;;;;;;;38.80;21.38;;;;;;;;;;5139169;27;20037;-85
2022/03/05 09:58:57;;;;;;;36.60;22.17;;;;;;;;;;5134568;27;20048;-85
2022/03/05 10:01:23;;;;;;;39.78;23.27;;;;;;;;;;5136859;27;20027;-85
2022/03/05 10:03:50;;;;;;;40.15;22.08;;;;;;;;;;5138931;27;20457;-86
2022/03/05 10:06:17;;;;;;;40.30;22.70;;;;;;;;;;5138891;27;20027;-85
2022/03/05 10:08:44;;;;;;;40.90;22.30;;;;;;;;;;5139289;27;20042;-85
2022/03/05 10:11:12;;;;;;;35.60;20.65;;;;;;;;;;5139332;27;20027;-85
2022/03/05 10:13:38;;;;;;;36.88;22.38;;;;;;;;;;5138739;27;20031;-85
2022/03/05 10:16:06;;;;;;;38.42;22.05;;;;;;;;;;5138727;27;20027;-86
2022/03/05 10:18:33;;;;;;;45.85;23.02;;;;;;;;;;5138684;27;20199;-85
2022/03/05 10:21:02;;;;;;;48.60;24.38;;;;;;;;;;5138637;27;20019;-85
2022/03/05 10:23:32;;;;;;;37.00;21.33;;;;;;;;;;5138774;27;20236;-85
2022/03/05 10:25:59;;;;;;;36.42;20.52;;;;;;;;;;5138796;27;20021;-85
2022/03/05 10:28:26;;;;;;;35.80;20.88;;;;;;;;;;5138686;27;20025;-85
2022/03/05 10:30:53;;;;;;;39.67;21.25;;;;;;;;;;5138630;27;20015;-83
2022/03/05 10:33:30;;;;;;;34.63;20.27;;;;;;;;;;5138462;27;20041;-84
2022/03/05 10:35:57;;;;;;;37.42;21.65;;;;;;;;;;5138550;27;20027;-84
2022/03/05 10:38:25;;;;;;;37.42;19.77;;;;;;;;;;5138678;27;20016;-84
2022/03/05 10:40:57;;;;;;;35.67;18.75;;;;;;;;;;5138277;27;20023;-84
2022/03/05 10:43:24;;;;;;;39.92;20.67;;;;;;;;;;5119379;28;20052;-84
2022/03/05 10:45:54;;;;;;;32.15;20.35;;;;;;;;;;5138186;28;20024;-84
2022/03/05 10:48:22;;;;;;;38.08;22.23;;;;;;;;;;5138249;28;20020;-84
2022/03/05 10:50:48;;;;;;;35.25;20.63;;;;;;;;;;5138377;27;20104;-84
2022/03/05 10:53:14;;;;;;;37.38;21.85;;;;;;;;;;5138502;28;20046;-84
2022/03/05 10:55:40;;;;;;;36.92;20.15;;;;;;;;;;5138057;28;20060;-84
2022/03/05 10:58:14;;;;;;;35.55;20.98;;;;;;;;;;5138029;28;20039;-84
2022/03/05 11:00:50;;;;;;;36.28;20.45;;;;;;;;;;5138019;28;20035;-84
2022/03/05 11:03:16;;;;;;;34.92;19.70;;;;;;;;;;5138438;28;20026;-85
2022/03/05 11:05:43;;;;;;;35.63;20.33;;;;;;;;;;5137961;28;20019;-84
2022/03/05 11:08:09;;;;;;;38.80;23.77;;;;;;;;;;5137954;28;20023;-85
2022/03/05 11:10:35;;;;;;;39.70;23.08;;;;;;;;;;5138198;28;20347;-85
2022/03/05 11:13:02;;;;;;;41.33;22.98;;;;;;;;;;5119018;28;20035;-85
2022/03/05 11:15:29;;;;;;;42.33;22.88;;;;;;;;;;5140037;27;20046;-85
2022/03/05 11:17:58;;;;;;;39.38;21.85;;;;;;;;;;5142116;27;20061;-85
2022/03/05 11:20:24;;;;;;;38.78;21.42;;;;;;;;;;5142057;27;20034;-84
2022/03/05 11:22:51;;;;;;;33.90;20.73;;;;;;;;;;5142142;27;20035;-87
2022/03/05 11:25:18;;;;;;;36.72;21.02;;;;;;;;;;5142218;27;20056;-86
2022/03/05 11:27:53;;;;;;;33.53;20.55;;;;;;;;;;5141858;27;20031;-86
2022/03/05 11:30:19;;;;;;;34.70;20.02;;;;;;;;;;5142069;27;20023;-86
2022/03/05 11:32:46;;;;;;;33.60;20.83;;;;;;;;;;5142261;27;20286;-86
2022/03/05 11:35:19;;;;;;;35.15;20.15;;;;;;;;;;5142132;27;20411;-86
2022/03/05 11:37:47;;;;;;;36.47;21.45;;;;;;;;;;5123513;27;20031;-85
2022/03/05 11:40:30;;;;;;;35.85;20.60;;;;;;;;;;5141600;27;20030;-86
2022/03/05 11:43:15;;;;;;;37.38;22.65;;;;;;;;;;5141527;27;20023;-86
2022/03/05 11:45:47;;;;;;;36.05;21.10;;;;;;;;;;5141508;27;20019;-85
2022/03/05 11:48:22;;;;;;;32.42;20.25;;;;;;;;;;5123518;27;20466;-86
2022/03/05 11:51:12;;;;;;;31.65;20.42;;;;;;;;;;5123036;27;20038;-86
2022/03/05 11:53:38;;;;;;;35.97;20.88;;;;;;;;;;5021970;28;20431;-85
2022/03/05 11:56:23;;;;;;;31.23;19.85;;;;;;;;;;5021792;28;20040;-86
2022/03/05 11:58:49;;;;;;;29.13;17.75;;;;;;;;;;5035088;28;20070;-86
2022/03/05 12:01:33;;;;;;;31.90;18.35;;;;;;;;;;5018482;28;20060;-86
2022/03/05 12:04:04;;;;;;;33.80;19.35;;;;;;;;;;5002140;28;20066;-85
2022/03/05 12:06:42;;;;;;;30.10;18.73;;;;;;;;;;5018495;28;20060;-85
2022/03/05 12:09:28;;;;;;;33.72;19.95;;;;;;;;;;5018395;28;20424;-85
2022/03/05 12:11:57;;;;;;;33.30;20.55;;;;;;;;;;5018103;28;20034;-85
2022/03/05 12:14:23;;;;;;;35.22;20.63;;;;;;;;;;5018121;28;20029;-86
2022/03/05 12:16:49;;;;;;;32.63;20.65;;;;;;;;;;5018125;28;20129;-86
2022/03/05 12:19:15;;;;;;;38.88;21.95;;;;;;;;;;5018218;28;20532;-86
2022/03/05 12:21:42;;;;;;;37.63;21.75;;;;;;;;;;5018110;28;20084;-85
2022/03/05 12:24:09;;;;;;;35.10;21.45;;;;;;;;;;5018182;28;20062;-85
2022/03/05 12:26:43;;;;;;;37.45;21.33;;;;;;;;;;5017887;28;20447;-85
2022/03/05 12:29:10;;;;;;;35.30;20.35;;;;;;;;;;5000939;28;20038;-85
2022/03/05 12:31:43;;;;;;;39.85;22.33;;;;;;;;;;5105036;28;20035;-85
2022/03/05 12:34:10;;;;;;;37.05;22.58;;;;;;;;;;5119893;28;20042;-85
2022/03/05 12:36:46;;;;;;;43.83;24.35;;;;;;;;;;5101912;28;20031;-86
2022/03/05 12:39:14;;;;;;;38.72;22.75;;;;;;;;;;5119716;28;20048;-85
2022/03/05 12:41:42;;;;;;;40.60;22.42;;;;;;;;;;5101965;28;20048;-85
2022/03/05 12:44:11;;;;;;;38.65;22.77;;;;;;;;;;5101917;28;20028;-85
2022/03/05 12:46:37;;;;;;;37.20;22.50;;;;;;;;;;5120000;28;20066;-85
2022/03/05 12:49:04;;;;;;;36.38;23.00;;;;;;;;;;5119786;28;20031;-85
2022/03/05 12:51:31;;;;;;;35.60;21.92;;;;;;;;;;5119731;28;20100;-84
2022/03/05 12:53:59;;;;;;;37.30;23.00;;;;;;;;;;5119531;28;20414;-83
2022/03/05 12:56:26;;;;;;;38.63;23.55;;;;;;;;;;5119354;28;20054;-83
2022/03/05 12:58:55;;;;;;;43.60;23.75;;;;;;;;;;5123011;27;20043;-84
2022/03/05 13:01:22;;;;;;;40.05;24.38;;;;;;;;;;5122041;27;20298;-84
2022/03/05 13:03:48;;;;;;;36.63;23.80;;;;;;;;;;5140029;27;20030;-84
2022/03/05 13:06:14;;;;;;;37.90;22.60;;;;;;;;;;5140136;27;20135;-83
2022/03/05 13:08:41;;;;;;;42.00;23.95;;;;;;;;;;5139968;27;20023;-84
2022/03/05 13:11:09;;;;;;;38.33;23.92;;;;;;;;;;5139738;27;20337;-83
2022/03/05 13:13:38;;;;;;;41.30;24.02;;;;;;;;;;5139750;27;20060;-83
2022/03/05 13:16:05;;;;;;;37.35;23.20;;;;;;;;;;5139354;27;20046;-85
2022/03/05 13:18:31;;;;;;;34.53;21.08;;;;;;;;;;5139569;27;20012;-83
2022/03/05 13:21:07;;;;;;;37.63;22.15;;;;;;;;;;5139168;27;20023;-83
2022/03/05 13:23:37;;;;;;;35.35;21.85;;;;;;;;;;5139322;27;20027;-83
2022/03/05 13:26:04;;;;;;;37.13;21.92;;;;;;;;;;5121222;27;20401;-84
2022/03/05 13:28:30;;;;;;;37.03;23.13;;;;;;;;;;5121262;27;20117;-84
2022/03/05 13:31:00;;;;;;;36.58;22.60;;;;;;;;;;5139402;27;20429;-84
2022/03/05 13:33:33;;;;;;;36.72;22.48;;;;;;;;;;5139524;27;20023;-84
2022/03/05 13:35:59;;;;;;;39.38;24.42;;;;;;;;;;5139224;27;20024;-84
2022/03/05 13:38:26;;;;;;;43.15;26.10;;;;;;;;;;5119539;27;20161;-83
2022/03/05 13:40:53;;;;;;;55.28;31.23;;;;;;;;;;5139353;27;20026;-83
2022/03/05 13:43:23;;;;;;;61.42;34.47;;;;;;;;;;5139227;27;20366;-84
2022/03/05 13:45:50;;;;;;;47.72;28.50;;;;;;;;;;5120568;27;20031;-84
2022/03/05 13:48:17;;;;;;;43.08;26.13;;;;;;;;;;5139416;27;20084;-83
2022/03/05 13:50:43;;;;;;;40.35;24.35;;;;;;;;;;5119903;27;20046;-84
2022/03/05 13:53:09;;;;;;;37.85;24.67;;;;;;;;;;5138320;27;20031;-84
2022/03/05 13:55:35;;;;;;;36.22;22.45;;;;;;;;;;5139217;27;20023;-84
2022/03/05 13:58:01;;;;;;;42.13;23.90;;;;;;;;;;5138689;27;20110;-83
2022/03/05 14:00:29;;;;;;;35.88;22.90;;;;;;;;;;5131951;27;20043;-83
2022/03/05 14:02:56;;;;;;;39.83;23.88;;;;;;;;;;5138829;27;20020;-83
2022/03/05 14:05:23;;;;;;;40.72;24.75;;;;;;;;;;5119976;27;20031;-83
2022/03/05 14:07:57;;;;;;;40.00;24.13;;;;;;;;;;5138602;27;20456;-84
2022/03/05 14:10:25;;;;;;;38.38;24.25;;;;;;;;;;5120323;27;20024;-84
2022/03/05 14:12:52;;;;;;;36.00;22.35;;;;;;;;;;5138528;27;20046;-83
2022/03/05 14:15:22;;;;;;;41.58;24.85;;;;;;;;;;5138573;27;20039;-83
2022/03/05 14:17:59;;;;;;;41.95;25.73;;;;;;;;;;5138183;27;20023;-84
2022/03/05 14:20:27;;;;;;;41.58;23.63;;;;;;;;;;5138268;27;20015;-84
2022/03/05 14:22:56;;;;;;;42.08;25.75;;;;;;;;;;5138224;27;20032;-84
2022/03/05 14:25:22;;;;;;;45.25;26.02;;;;;;;;;;5138371;27;20019;-83
2022/03/05 14:27:50;;;;;;;44.58;27.55;;;;;;;;;;5138303;27;20298;-84
2022/03/05 14:30:16;;;;;;;49.08;28.77;;;;;;;;;;5138400;27;20023;-83
2022/03/05 14:32:43;;;;;;;41.60;25.75;;;;;;;;;;5138292;27;20042;-83
2022/03/05 14:35:09;;;;;;;229.40;42.58;;;;;;;;;;5138405;27;20200;-84